createdAt,value
2022-09-22T00:00:38.494Z,2.05
2022-09-22T00:03:05.008Z,2.83
2022-09-22T00:05:31.469Z,2.00
2022-09-22T00:07:57.960Z,2.70
2022-09-22T00:10:24.427Z,2.85
2022-09-22T00:12:53.089Z,2.20
2022-09-22T00:15:19.582Z,2.83
2022-09-22T00:17:46.123Z,2.85
2022-09-22T00:20:12.604Z,2.45
2022-09-22T00:22:39.224Z,2.10
2022-09-22T00:25:07.223Z,2.22
2022-09-22T00:27:33.869Z,1.73
2022-09-22T00:30:01.784Z,2.60
2022-09-22T00:32:28.310Z,2.15
2022-09-22T00:34:54.775Z,1.42
2022-09-22T00:37:21.280Z,2.17
2022-09-22T00:39:47.757Z,1.95
2022-09-22T00:42:14.205Z,2.15
2022-09-22T00:44:42.520Z,2.50
2022-09-22T00:47:20.982Z,2.10
2022-09-22T00:49:52.506Z,2.33
2022-09-22T00:52:23.296Z,2.28
2022-09-22T00:54:53.107Z,1.85
2022-09-22T00:57:23.820Z,2.28
2022-09-22T00:59:52.591Z,2.13
2022-09-22T01:02:21.193Z,2.17
2022-09-22T01:04:50.605Z,2.97
2022-09-22T01:07:18.002Z,1.67
2022-09-22T01:09:44.489Z,1.85
2022-09-22T01:12:11.131Z,2.45
2022-09-22T01:14:58.696Z,1.48
2022-09-22T01:17:36.928Z,1.80
2022-09-22T01:20:20.358Z,2.05
2022-09-22T01:23:11.717Z,2.72
2022-09-22T01:26:00.847Z,2.10
2022-09-22T01:28:46.542Z,2.58
2022-09-22T01:31:20.929Z,1.48
2022-09-22T01:33:52.602Z,2.15
2022-09-22T01:36:24.372Z,2.03
2022-09-22T01:39:01.333Z,1.58
2022-09-22T01:41:43.345Z,2.00
2022-09-22T01:44:14.624Z,3.50
2022-09-22T01:46:51.624Z,1.83
2022-09-22T01:49:21.316Z,3.38
2022-09-22T01:51:50.902Z,1.48
2022-09-22T01:54:21.349Z,2.60
2022-09-22T01:56:55.716Z,1.42
2022-09-22T01:59:26.435Z,1.92
2022-09-22T02:02:00.466Z,2.17
2022-09-22T02:04:34.742Z,3.08
2022-09-22T02:07:05.038Z,1.50
2022-09-22T02:09:33.710Z,1.90
2022-09-22T02:12:01.052Z,1.70
2022-09-22T02:14:28.223Z,1.85
2022-09-22T02:16:56.220Z,1.98
2022-09-22T02:19:27.459Z,2.08
2022-09-22T02:21:54.237Z,1.42
2022-09-22T02:24:32.055Z,2.08
2022-09-22T02:27:00.352Z,1.60
2022-09-22T02:29:31.384Z,1.58
2022-09-22T02:32:02.097Z,1.88
2022-09-22T02:34:28.780Z,1.67
2022-09-22T02:37:03.339Z,1.65
2022-09-22T02:39:38.734Z,2.08
2022-09-22T02:42:16.419Z,1.50
2022-09-22T02:44:50.078Z,1.38
2022-09-22T02:47:24.739Z,2.63
2022-09-22T02:49:52.459Z,1.63
2022-09-22T02:52:22.248Z,1.67
2022-09-22T02:54:48.709Z,1.35
2022-09-22T02:57:15.213Z,1.73
2022-09-22T02:59:41.703Z,1.55
2022-09-22T03:02:08.172Z,2.08
2022-09-22T03:04:36.071Z,2.13
2022-09-22T03:07:02.557Z,2.30
2022-09-22T03:09:29.048Z,1.35
2022-09-22T03:11:55.543Z,1.50
2022-09-22T03:14:22.035Z,2.35
2022-09-22T03:16:48.502Z,2.00
2022-09-22T03:19:14.978Z,1.08
2022-09-22T03:21:42.808Z,2.35
2022-09-22T03:24:09.401Z,1.38
2022-09-22T03:26:35.891Z,1.30
2022-09-22T03:29:02.416Z,1.75
2022-09-22T03:31:28.909Z,2.17
2022-09-22T03:33:55.436Z,1.42
2022-09-22T03:36:21.914Z,1.40
2022-09-22T03:38:49.900Z,2.40
2022-09-22T03:41:16.394Z,1.85
2022-09-22T03:43:42.904Z,2.13
2022-09-22T03:46:09.537Z,1.63
2022-09-22T03:48:36.191Z,1.77
2022-09-22T03:51:02.692Z,1.73
2022-09-22T03:53:29.296Z,1.27
2022-09-22T03:56:07.169Z,2.28
2022-09-22T03:58:35.099Z,1.80
2022-09-22T04:01:01.992Z,1.42
2022-09-22T04:03:28.530Z,2.58
2022-09-22T04:05:55.299Z,2.15
2022-09-22T04:08:21.827Z,1.83
2022-09-22T04:10:48.358Z,1.38
2022-09-22T04:13:16.253Z,2.33
2022-09-22T04:15:43.000Z,1.75
2022-09-22T04:18:09.472Z,1.77
2022-09-22T04:20:35.953Z,1.27
2022-09-22T04:23:02.409Z,2.72
2022-09-22T04:25:28.917Z,1.63
2022-09-22T04:27:55.382Z,2.05
2022-09-22T04:30:23.259Z,1.45
2022-09-22T04:32:49.750Z,1.55
2022-09-22T04:35:16.268Z,1.73
2022-09-22T04:37:42.810Z,1.50
2022-09-22T04:40:09.843Z,1.45
2022-09-22T04:42:36.335Z,1.52
2022-09-22T04:45:02.819Z,1.60
2022-09-22T04:47:30.680Z,1.55
2022-09-22T04:49:57.177Z,2.63
2022-09-22T04:52:23.725Z,1.65
2022-09-22T04:54:50.195Z,1.58
2022-09-22T04:57:20.302Z,1.35
2022-09-22T04:59:47.132Z,2.22
2022-09-22T05:02:13.678Z,2.33
2022-09-22T05:04:41.557Z,1.90
2022-09-22T05:07:08.018Z,1.95
2022-09-22T05:09:34.482Z,1.98
2022-09-22T05:12:01.416Z,1.08
2022-09-22T05:14:27.967Z,1.73
2022-09-22T05:16:54.531Z,1.63
2022-09-22T05:19:21.083Z,1.98
2022-09-22T05:21:48.928Z,1.25
2022-09-22T05:24:15.392Z,1.10
2022-09-22T05:26:41.902Z,1.42
2022-09-22T05:29:08.453Z,1.27
2022-09-22T05:31:35.021Z,1.30
2022-09-22T05:34:01.486Z,1.90
2022-09-22T05:36:27.962Z,1.50
2022-09-22T05:38:55.776Z,2.80
2022-09-22T05:41:22.246Z,1.65
2022-09-22T05:43:48.696Z,1.17
2022-09-22T05:46:15.256Z,1.90
2022-09-22T05:48:41.767Z,2.10
2022-09-22T05:51:08.266Z,1.73
2022-09-22T05:53:34.738Z,1.73
2022-09-22T05:56:02.713Z,1.52
2022-09-22T05:58:29.244Z,1.60
2022-09-22T06:00:56.562Z,2.05
2022-09-22T06:03:23.177Z,1.52
2022-09-22T06:05:50.240Z,1.70
2022-09-22T06:08:16.793Z,4.10
2022-09-22T06:10:44.306Z,2.00
2022-09-22T06:15:39.334Z,1.73
2022-09-22T06:18:09.811Z,1.77
2022-09-22T06:20:38.476Z,2.30
2022-09-22T06:23:05.013Z,2.97
2022-09-22T06:25:31.512Z,1.30
2022-09-22T06:27:59.009Z,1.80
2022-09-22T06:32:53.938Z,1.73
2022-09-22T06:35:20.426Z,2.53
2022-09-22T06:37:54.861Z,2.63
2022-09-22T06:40:21.377Z,4.20
2022-09-22T06:42:47.888Z,1.52
2022-09-22T06:45:14.585Z,2.08
2022-09-22T06:47:42.474Z,1.60
2022-09-22T06:50:09.261Z,2.17
2022-09-22T06:52:38.245Z,2.15
2022-09-22T06:55:05.788Z,2.30
2022-09-22T06:57:32.290Z,1.58
2022-09-22T06:59:59.360Z,2.20
2022-09-22T07:02:26.080Z,2.90
2022-09-22T07:04:54.041Z,1.48
2022-09-22T07:07:20.537Z,2.53
2022-09-22T07:09:47.020Z,2.40
2022-09-22T07:12:13.513Z,3.05
2022-09-22T07:14:39.971Z,1.65
2022-09-22T07:17:06.475Z,3.00
2022-09-22T07:19:32.943Z,2.67
2022-09-22T07:22:00.785Z,1.88
2022-09-22T07:24:27.267Z,2.00
2022-09-22T07:26:53.736Z,2.47
2022-09-22T07:29:20.277Z,1.85
2022-09-22T07:31:46.819Z,2.08
2022-09-22T07:34:13.332Z,3.85
2022-09-22T07:36:39.817Z,4.60
2022-09-22T07:39:10.392Z,3.42
2022-09-22T07:41:37.039Z,3.28
2022-09-22T07:44:03.613Z,3.22
2022-09-22T07:46:30.139Z,4.07
2022-09-22T07:48:56.664Z,3.58
2022-09-22T07:51:24.946Z,5.22
2022-09-22T07:53:54.007Z,4.03
2022-09-22T07:56:21.836Z,7.53
2022-09-22T07:58:50.337Z,3.83
2022-09-22T08:01:17.414Z,3.45
2022-09-22T08:03:44.068Z,2.97
2022-09-22T08:06:10.998Z,3.53
2022-09-22T08:08:38.598Z,3.28
2022-09-22T08:11:06.902Z,2.83
2022-09-22T08:13:34.985Z,3.13
2022-09-22T08:16:01.773Z,5.00
2022-09-22T08:18:28.327Z,3.03
2022-09-22T08:20:54.807Z,3.85
2022-09-22T08:23:21.275Z,3.00
2022-09-22T08:25:47.748Z,3.85
2022-09-22T08:28:14.222Z,3.53
2022-09-22T08:30:46.032Z,3.88
2022-09-22T08:33:12.896Z,3.53
2022-09-22T08:35:50.616Z,4.35
2022-09-22T08:38:17.119Z,4.85
2022-09-22T08:40:49.628Z,4.05
2022-09-22T08:43:16.234Z,3.60
2022-09-22T08:45:44.060Z,4.45
2022-09-22T08:48:19.312Z,3.67
2022-09-22T08:50:49.363Z,3.60
2022-09-22T08:53:19.145Z,3.85
2022-09-22T08:55:50.692Z,3.92
2022-09-22T08:58:34.983Z,3.40
2022-09-22T09:01:13.753Z,4.63
2022-09-22T09:03:55.185Z,5.30
2022-09-22T09:06:30.768Z,4.20
2022-09-22T09:09:15.453Z,4.35
2022-09-22T09:12:06.493Z,5.10
2022-09-22T09:14:53.793Z,3.90
2022-09-22T09:17:25.656Z,3.92
2022-09-22T09:19:57.720Z,5.20
2022-09-22T09:22:28.844Z,3.50
2022-09-22T09:27:51.229Z,3.80
2022-09-22T09:30:19.950Z,4.40
2022-09-22T09:32:50.401Z,6.82
2022-09-22T09:35:22.237Z,5.75
2022-09-22T09:37:49.436Z,6.72
2022-09-22T09:40:19.005Z,5.18
2022-09-22T09:42:46.769Z,4.63
2022-09-22T09:45:15.212Z,5.47
2022-09-22T09:48:15.893Z,8.82
2022-09-22T09:50:43.752Z,5.18
2022-09-22T09:53:26.389Z,4.82
2022-09-22T09:55:53.447Z,3.45
2022-09-22T09:58:19.962Z,4.05
2022-09-22T10:00:58.519Z,3.90
2022-09-22T10:03:29.445Z,3.38
2022-09-22T10:06:00.151Z,4.35
2022-09-22T10:08:27.856Z,3.45
2022-09-22T10:10:59.173Z,4.85
2022-09-22T10:13:31.243Z,4.97
2022-09-22T10:16:19.688Z,5.20
2022-09-22T10:18:47.480Z,3.50
2022-09-22T10:21:17.311Z,3.00
2022-09-22T10:23:45.230Z,3.47
2022-09-22T10:26:18.603Z,4.47
2022-09-22T10:28:45.468Z,4.53
2022-09-22T10:31:20.571Z,3.35
2022-09-22T10:33:55.222Z,5.78
2022-09-22T10:36:23.205Z,3.75
2022-09-22T10:38:49.984Z,2.88
2022-09-22T10:41:18.240Z,3.10
2022-09-22T10:43:49.851Z,3.13
2022-09-22T10:46:48.503Z,3.67
2022-09-22T10:49:23.913Z,3.60
2022-09-22T10:52:04.612Z,4.40
2022-09-22T10:54:55.986Z,3.92
2022-09-22T10:57:46.412Z,4.22
2022-09-22T11:00:15.823Z,3.78
2022-09-22T11:03:17.717Z,4.53
2022-09-22T11:05:55.368Z,4.97
2022-09-22T11:08:23.547Z,3.35
2022-09-22T11:10:57.902Z,4.00
2022-09-22T11:13:38.876Z,3.97
2022-09-22T11:16:18.632Z,3.13
2022-09-22T11:18:57.751Z,4.35
2022-09-22T11:21:37.719Z,3.13
2022-09-22T11:24:19.200Z,3.10
2022-09-22T11:26:51.810Z,3.72
2022-09-22T11:29:43.202Z,2.90
2022-09-22T11:32:25.849Z,2.30
2022-09-22T11:35:12.817Z,2.67
2022-09-22T11:37:51.593Z,3.20
2022-09-22T11:40:29.807Z,3.40
2022-09-22T11:43:07.710Z,3.38
2022-09-22T11:45:48.943Z,3.75
2022-09-22T11:48:31.466Z,3.03
2022-09-22T11:51:10.364Z,3.38
2022-09-22T11:53:46.727Z,2.85
2022-09-22T11:56:30.691Z,3.03
2022-09-22T11:59:01.180Z,3.80
2022-09-22T12:01:34.165Z,3.83
2022-09-22T12:04:07.374Z,2.60
2022-09-22T12:06:39.778Z,3.42
2022-09-22T12:09:12.687Z,3.10
2022-09-22T12:11:41.795Z,2.92
2022-09-22T12:14:13.933Z,4.43
2022-09-22T12:16:45.875Z,3.28
2022-09-22T12:19:22.745Z,3.00
2022-09-22T12:21:54.605Z,2.33
2022-09-22T12:24:21.139Z,4.85
2022-09-22T12:26:50.487Z,2.75
2022-09-22T12:29:28.965Z,3.10
2022-09-22T12:31:57.563Z,3.53
2022-09-22T12:34:26.337Z,3.10
2022-09-22T12:36:55.019Z,3.03
2022-09-22T12:39:24.453Z,2.60
2022-09-22T12:41:57.975Z,2.90
2022-09-22T12:44:27.214Z,2.97
2022-09-22T12:46:59.590Z,2.60
2022-09-22T12:49:26.113Z,2.55
2022-09-22T12:51:52.700Z,2.75
2022-09-22T12:54:38.485Z,2.50
2022-09-22T12:57:29.972Z,3.65
2022-09-22T13:00:05.109Z,2.40
2022-09-22T13:02:39.877Z,2.40
2022-09-22T13:05:31.449Z,3.17
2022-09-22T13:07:57.906Z,2.58
2022-09-22T13:10:51.287Z,3.97
2022-09-22T13:13:43.455Z,3.20
2022-09-22T13:16:39.814Z,3.05
2022-09-22T13:19:09.735Z,4.03
2022-09-22T13:21:36.221Z,2.92
2022-09-22T13:24:04.149Z,2.92
2022-09-22T13:26:33.021Z,2.80
2022-09-22T13:29:10.455Z,3.35
2022-09-22T13:31:39.792Z,2.42
2022-09-22T13:34:20.196Z,2.63
2022-09-22T13:36:47.372Z,4.07
2022-09-22T13:39:17.165Z,3.13
2022-09-22T13:41:48.056Z,4.32
2022-09-22T13:44:21.456Z,2.75
2022-09-22T13:46:50.332Z,2.80
2022-09-22T13:49:24.337Z,2.88
2022-09-22T13:51:55.813Z,3.47
2022-09-22T13:54:26.351Z,2.75
2022-09-22T13:56:53.600Z,2.80
2022-09-22T13:59:21.658Z,2.75
2022-09-22T14:01:49.854Z,3.05
2022-09-22T14:04:22.093Z,2.97
2022-09-22T14:06:49.613Z,3.55
2022-09-22T14:09:16.292Z,3.10
2022-09-22T14:11:43.133Z,2.67
2022-09-22T14:14:23.352Z,3.55
2022-09-22T14:16:52.319Z,3.55
2022-09-22T14:19:22.401Z,3.70
2022-09-22T14:21:51.457Z,4.18
2022-09-22T14:24:18.856Z,2.92
2022-09-22T14:29:17.872Z,2.88
2022-09-22T14:31:49.653Z,2.75
2022-09-22T14:34:21.125Z,3.17
2022-09-22T14:36:50.248Z,2.85
2022-09-22T14:39:19.456Z,4.22
2022-09-22T14:41:50.930Z,5.30
2022-09-22T14:44:34.165Z,3.85
2022-09-22T14:47:19.009Z,2.92
2022-09-22T14:49:46.437Z,3.10
2022-09-22T14:54:45.460Z,3.25
2022-09-22T14:57:15.651Z,2.80
2022-09-22T14:59:47.861Z,3.45
2022-09-22T15:02:16.152Z,2.90
2022-09-22T15:04:48.509Z,2.35
2022-09-22T15:07:23.100Z,3.85
2022-09-22T15:09:53.528Z,2.92
2022-09-22T15:12:35.035Z,2.70
2022-09-22T15:15:01.821Z,2.53
2022-09-22T15:17:38.320Z,3.15
2022-09-22T15:20:04.922Z,2.95
2022-09-22T15:22:31.396Z,2.40
2022-09-22T15:24:58.087Z,2.58
2022-09-22T15:27:24.572Z,2.83
2022-09-22T15:29:51.089Z,2.60
2022-09-22T15:32:17.551Z,3.55
2022-09-22T15:34:45.388Z,3.88
2022-09-22T15:37:19.036Z,2.63
2022-09-22T15:39:45.528Z,3.92
2022-09-22T15:42:12.216Z,2.90
2022-09-22T15:44:39.059Z,2.70
2022-09-22T15:47:09.376Z,4.22
2022-09-22T15:49:36.512Z,3.38
2022-09-22T15:52:04.381Z,2.85
2022-09-22T15:54:31.463Z,3.92
2022-09-22T15:56:59.753Z,2.88
2022-09-22T15:59:30.570Z,2.50
2022-09-22T16:01:57.362Z,3.70
2022-09-22T16:04:24.163Z,3.70
2022-09-22T16:06:54.596Z,3.15
2022-09-22T16:09:22.520Z,3.47
2022-09-22T16:11:49.011Z,3.58
2022-09-22T16:14:15.482Z,4.13
2022-09-22T16:16:42.065Z,3.28
2022-09-22T16:19:09.010Z,2.70
2022-09-22T16:21:38.077Z,3.85
2022-09-22T16:24:07.289Z,5.15
2022-09-22T16:26:36.343Z,3.65
2022-09-22T16:29:03.576Z,3.58
2022-09-22T16:31:30.405Z,4.32
2022-09-22T16:33:58.119Z,3.35
2022-09-22T16:36:28.816Z,9.18
2022-09-22T16:38:55.972Z,3.78
2022-09-22T16:41:23.886Z,3.22
2022-09-22T16:43:52.714Z,5.00
2022-09-22T16:46:20.263Z,3.35
2022-09-22T16:48:46.766Z,5.05
2022-09-22T16:51:13.330Z,4.45
2022-09-22T16:53:39.826Z,4.07
2022-09-22T16:56:06.303Z,9.82
2022-09-22T16:58:32.869Z,3.35
2022-09-22T17:01:03.065Z,3.53
2022-09-22T17:03:30.116Z,3.95
2022-09-22T17:06:01.722Z,3.75
2022-09-22T17:08:28.210Z,5.35
2022-09-22T17:10:54.680Z,4.95
2022-09-22T17:13:21.169Z,4.90
2022-09-22T17:15:48.116Z,3.22
2022-09-22T17:18:15.960Z,4.05
2022-09-22T17:20:42.414Z,4.55
2022-09-22T17:23:08.927Z,3.55
2022-09-22T17:25:35.398Z,6.65
2022-09-22T17:28:02.225Z,6.15
2022-09-22T17:30:28.704Z,3.92
2022-09-22T17:32:55.208Z,3.83
2022-09-22T17:35:23.029Z,6.15
2022-09-22T17:37:49.500Z,15.82
2022-09-22T17:40:16.034Z,19.08
2022-09-22T17:42:42.565Z,32.67
2022-09-22T17:45:10.208Z,34.47
2022-09-22T17:47:36.694Z,28.98
2022-09-22T17:50:03.569Z,36.60
2022-09-22T17:52:31.436Z,41.63
2022-09-22T17:54:59.773Z,36.00
2022-09-22T17:57:28.611Z,35.17
2022-09-22T17:59:56.654Z,36.15
2022-09-22T18:02:25.310Z,34.47
2022-09-22T18:04:52.125Z,34.25
2022-09-22T18:07:20.809Z,30.95
2022-09-22T18:09:50.070Z,26.73
2022-09-22T18:12:18.903Z,23.52
2022-09-22T18:14:45.809Z,16.65
2022-09-22T18:17:13.417Z,20.27
2022-09-22T18:19:40.828Z,21.00
2022-09-22T18:24:34.646Z,19.92
2022-09-22T18:27:02.702Z,16.38
2022-09-22T18:29:29.314Z,14.23
2022-09-22T18:31:55.802Z,16.00
2022-09-22T18:34:22.324Z,13.77
2022-09-22T18:36:48.813Z,11.80
2022-09-22T18:39:15.300Z,16.17
2022-09-22T18:41:41.770Z,15.90
2022-09-22T18:44:09.720Z,13.55
2022-09-22T18:46:36.453Z,11.27
2022-09-22T18:49:04.433Z,13.20
2022-09-22T18:51:31.137Z,13.68
2022-09-22T18:53:57.961Z,9.90
2022-09-22T18:56:25.054Z,11.77
2022-09-22T18:58:53.632Z,12.93
2022-09-22T19:01:21.970Z,10.05
2022-09-22T19:03:48.970Z,14.70
2022-09-22T19:06:15.773Z,10.88
2022-09-22T19:08:42.228Z,11.05
2022-09-22T19:11:08.734Z,9.43
2022-09-22T19:13:35.272Z,12.07
2022-09-22T19:16:02.211Z,11.48
2022-09-22T19:18:30.047Z,8.25
2022-09-22T19:20:56.638Z,10.98
2022-09-22T19:23:23.136Z,8.18
2022-09-22T19:25:49.653Z,10.05
2022-09-22T19:28:16.138Z,8.48
2022-09-22T19:30:42.676Z,9.82
2022-09-22T19:33:09.572Z,9.10
2022-09-22T19:35:39.475Z,11.20
2022-09-22T19:38:06.229Z,8.38
2022-09-22T19:40:32.851Z,8.73
2022-09-22T19:42:59.936Z,7.45
2022-09-22T19:45:26.428Z,6.22
2022-09-22T19:47:53.857Z,6.43
2022-09-22T19:52:48.099Z,7.05
2022-09-22T19:55:17.861Z,8.40
2022-09-22T19:57:46.977Z,5.88
2022-09-22T20:00:15.730Z,6.55
2022-09-22T20:02:44.323Z,11.75
2022-09-22T20:05:19.402Z,7.65
2022-09-22T20:07:46.050Z,6.03
2022-09-22T20:10:14.103Z,6.55
2022-09-22T20:12:40.722Z,7.05
2022-09-22T20:15:07.880Z,8.88
2022-09-22T20:17:34.425Z,4.90
2022-09-22T20:20:01.210Z,5.95
2022-09-22T20:22:29.400Z,8.05
2022-09-22T20:24:58.094Z,5.25
2022-09-22T20:27:27.647Z,4.90
2022-09-22T20:29:57.296Z,5.35
2022-09-22T20:32:25.000Z,5.78
2022-09-22T20:34:52.400Z,5.50
2022-09-22T20:39:45.286Z,5.43
2022-09-22T20:42:12.819Z,6.45
2022-09-22T20:44:40.960Z,4.60
2022-09-22T20:47:12.812Z,5.57
2022-09-22T20:49:39.488Z,6.47
2022-09-22T20:52:05.996Z,4.30
2022-09-22T20:54:32.481Z,5.10
2022-09-22T20:56:59.049Z,5.78
2022-09-22T20:59:25.562Z,7.38
2022-09-22T21:01:53.441Z,4.30
2022-09-22T21:04:19.937Z,4.95
2022-09-22T21:06:46.414Z,4.97
2022-09-22T21:09:12.924Z,4.78
2022-09-22T21:11:39.409Z,6.50
2022-09-22T21:14:06.069Z,4.90
2022-09-22T21:16:34.179Z,4.18
2022-09-22T21:19:02.418Z,4.38
2022-09-22T21:21:30.301Z,6.18
2022-09-22T21:23:57.969Z,5.25
2022-09-22T21:26:24.437Z,5.57
2022-09-22T21:28:51.172Z,4.55
2022-09-22T21:31:17.920Z,4.70
2022-09-22T21:34:36.828Z,4.57
2022-09-22T21:37:03.387Z,4.97
2022-09-22T21:39:29.892Z,5.55
2022-09-22T21:41:56.431Z,4.13
2022-09-22T21:44:22.906Z,5.13
2022-09-22T21:46:49.436Z,5.03
2022-09-22T21:49:15.944Z,4.80
2022-09-22T21:51:44.429Z,3.80
2022-09-22T21:54:13.079Z,9.02
2022-09-22T21:56:39.903Z,4.95
2022-09-22T21:59:06.381Z,5.07
2022-09-22T22:01:34.640Z,5.57
2022-09-22T22:04:02.335Z,5.05
2022-09-22T22:06:30.367Z,6.82
2022-09-22T22:08:59.661Z,5.70
2022-09-22T22:11:27.561Z,5.70
2022-09-22T22:13:55.665Z,4.60
2022-09-22T22:16:24.878Z,4.03
2022-09-22T22:18:51.869Z,6.57
2022-09-22T22:21:20.742Z,3.83
2022-09-22T22:23:49.090Z,5.95
2022-09-22T22:26:20.009Z,4.63
2022-09-22T22:28:47.802Z,4.50
2022-09-22T22:31:16.156Z,4.00
2022-09-22T22:33:43.932Z,3.95
2022-09-22T22:36:13.020Z,7.25
2022-09-22T22:38:41.395Z,3.85
2022-09-22T22:41:09.674Z,3.85
2022-09-22T22:43:37.769Z,3.80
2022-09-22T22:46:05.244Z,4.20
2022-09-22T22:48:32.066Z,5.57
2022-09-22T22:50:58.837Z,3.75
2022-09-22T22:53:25.848Z,3.95
2022-09-22T22:55:54.655Z,5.05
2022-09-22T22:58:22.272Z,4.57
2022-09-22T23:00:58.033Z,5.38
2022-09-22T23:03:24.562Z,4.70
2022-09-22T23:05:55.180Z,3.97
2022-09-22T23:08:21.657Z,4.53
2022-09-22T23:10:48.165Z,5.38
2022-09-22T23:13:14.653Z,4.97
2022-09-22T23:15:41.284Z,4.55
2022-09-22T23:18:09.145Z,3.47
2022-09-22T23:20:35.750Z,3.78
2022-09-22T23:23:02.215Z,3.50
2022-09-22T23:25:28.778Z,3.17
2022-09-22T23:27:55.297Z,3.75
2022-09-22T23:30:21.835Z,3.33
2022-09-22T23:32:48.340Z,3.00
2022-09-22T23:35:16.345Z,4.47
2022-09-22T23:37:42.792Z,4.63
2022-09-22T23:40:10.483Z,3.70
2022-09-22T23:42:36.969Z,4.45
2022-09-22T23:45:03.901Z,3.65
2022-09-22T23:47:30.389Z,3.67
2022-09-22T23:49:56.846Z,4.15
2022-09-22T23:52:24.668Z,4.07
2022-09-22T23:54:51.127Z,4.25
2022-09-22T23:57:17.598Z,3.55
2022-09-22T23:59:44.085Z,3.60
